KAGS/AGS METAR and TAF weather

Enter ICAO airport designator
Station Type Date Time Source
KAGS METAR 2019/06/18 14:53 UTC NOAA

KAGS 181453Z 20004KT 10SM BKN022 28/22 A3001 RMK AO2 SLP160 T02830217 58009


Station Type Date Time Source
KAGS Decoded METAR 2019/06/18 14:53 UTC NOAA

AUGUSTA BUSH FIELD, GA, United States (KAGS) 33-22N 081-58W 44M
Jun 18, 2019 - 10:53 AM EDT / 2019.06.18 1453 UTC
Wind: from the SSW (200 degrees) at 5 MPH (4 KT):0
Visibility: 10 mile(s):0
Sky conditions: mostly cloudy
Temperature: 82.9 F (28.3 C)
Dew Point: 71.1 F (21.7 C)
Relative Humidity: 67%
Pressure (altimeter): 30.01 in. Hg (1016 hPa)
Pressure tendency: 0.03 inches (0.9 hPa) lower than three hours ago
ob: KAGS 181453Z 20004KT 10SM BKN022 28/22 A3001 RMK AO2 SLP160 T02830217 58009
cycle: 15

Station Type Date Time Source
KAGS TAF 2019/06/18 13:48 UTC NOAA

TAF
AMD KAGS 181245Z 1813/1912 17005KT P6SM SCT012
TEMPO 1813/1815 BKN012
FM181500 19005KT P6SM SCT030
FM182000 20008KT P6SM VCSH BKN050
FM190200 VRB03KT P6SM OVC050

Example: see airport list